Terminal Aerodrome Forecast
Issued by NWS Northern Indiana

Home | Current Version | Previous Version | Text Only | Print | Product List | Glossary On
Versions: 1 2 3 4 5 6 7 8 9 10 11 12 13 14 15 16 17
000
FTUS43 KIWX 271136
TAFFWA
TAF
KFWA 271136Z 2712/2812 00000KT 2SM BR SCT002
      TEMPO 2712/2713 1SM BR BKN002
     FM271430 VRB03KT P6SM SCT045
     FM280900 13002KT 5SM BR FEW200=

USA.gov is the U.S. government's official web portal to all federal, state and local government web resources and services.